Rocky Mount, NC (27804)

2:54 PM EST en Noviembre 24, 2014 (GMT -0500)
City Lake - Rocky Mount | Change Station
CLOSE
Current Station
Estación meteorológica personal
Location: Rocky Mount, NC
Altura: 143 ft
Estaciones meteorológicas cercanas

Alt 143 ft 35.95 °N, 77.82 °W | Updated 36 seconds ago

Nublado
Nublado
72.0 ° F
Sensación térmica 77 ° F
N
7.6
Viento Variable Viento desde SSO
Gusts 10.1 mph

Hoy
Alta -- | Baja -- ° F
--% Posibilidad de precipitaciones
Ayer
Alta -- | Baja -- ° F
Precip. -- pul
6:56 AM 4:59 PM
Creciente, 6% visible
Presión 29.79 pul
Visibilidad 10.0 Millas
Nubes Nublado 7000 ft
Índice de calor 77 ° F
Punto de rocío 54 ° F
Humedad 54%
Precipitaciones 0.50 pul
Espesor de la nieve No disponible.
UV 1 de una escala de 12
Polen .30 de una escala de 12
Calidad del aire No disponible.
Flu Activity No disponible.
METAR KRWI 241853Z AUTO 19009KT 10SM OVC070 22/18 A2979 RMK AO2 SLP086 T02220178

More Conditions Fewer Conditions

Presión 29.79 pul
Visibilidad 10.0 Millas
Nubes Nublado 7000 ft
Índice de calor 77 ° F
Punto de rocío 54 ° F
Humedad 54%
Precipitaciones 0.50 pul
Espesor de la nieve No disponible.
UV 1 de una escala de 12
Polen .30 de una escala de 12
Calidad del aire No disponible.
Flu Activity No disponible.
METAR KRWI 241853Z AUTO 19009KT 10SM OVC070 22/18 A2979 RMK AO2 SLP086 T02220178

More Conditions Fewer Conditions

10-Day Weather Forecast

Almanac

Astronomía

Nov. 24, 2014 Salida Puesta
Hora real
Crepúsculo civil
Crepúsculo náutico
Crepúsculo astronómico
Luna
Horas de luz
Horas de luz
Tomorrow will be .
, % of the Moon is Illuminated

Extremos de hoy

Máximos del estado Bajos del estado

Community

WunderPhotos

Upload Photos

1,773,396 ¡fotos cargadas!

WunderBlogs® & News

Nearby

Calidad del aire

  Calidad del aire Índice AQ Contaminante
Not available.

Grosos de nieve

Estación Profundido Altura

Actividad de terremotos

Ciudad Distance Mag. Tiempo y dato
Magnitud mínima muestra es 2,5.

Temperaturas de aguas costeras

Lugar Temperatura

Estaciones meteorológicas cercanas